CYEK

Arviat Airport

Arviat, Canada
METAR CYEK 152200Z 12011KT 12SM BKN035 12/11 A2944 RMK SC7 16.9/10.7/TR MM LAST STAFFED OBS/NEXT 161200 UTC SLP972 DENSITY ALT 300FT
Observed Flight Rules
Aug-15 @ 22:00 UTC (27 minutes ago) Visual Flight Rules
Wind Visibility Clouds
120° at 11 knots 12 miles
  • Broken at 3,500' AGL
Temperatures Readings
Current 12°C / 54°F
Dewpoint 11°C / 52°F
Humidity 94%
Altimeter 29.44" Hg
Pressure 997.2 hPa
Elevation 10
METAR CYEK 152200Z 12011KT 12SM BKN035 12/11 A2944 RMK SC7 16.9/10.7/TR MM LAST STAFFED OBS/NEXT 161200 UTC SLP972 DENSITY ALT 300FT
Observed Flight Rules
Aug-15 @ 22:00 UTC
(27 minutes ago)
VFR
Wind Visibility
120° at 11 knots 12 miles
Clouds
  • Broken at 3,500' AGL
Temperature Dewpoint
12°C / 54°F 11°C / 52°F
Humidity Altimeter Pressure
94% 29.44" Hg 997.2 hPa